< VanCam Weather - WU Station History
^^
Station Historical Data
 
Daily Summary for February 24, 2018 Units:  English    Metric   Both
« Previous Day
Next Day »
Daily Weekly Monthly Yearly Custom
  Current: High: Low: Average:
Temperature: 36.4 °F 47.5 °F 34.8 °F 38.9 °F
Dew Point: 34.3 °F 41.1 °F 32.5 °F 35.7 °F
Humidity: 92% 97% 65% 89%
Wind Speed: 1.2mph 11.5mph 0.0mph 3.2mph
Wind Gust: 1.2mph 11.5mph - -
WindEast - - SSW
Pressure: 30.25 in 30.25 in 30.04 in -
Precipitation: 0.27 in      
Historical Graphs
 
 
Tabular Data for February 24, 2018
Time Temperature Dew Point Pressure Wind Wind Speed Wind Gust Humidity Rainfall Rate (Hourly) solar Conditions
00:04 36.9 °F 32.5 °F 30.18 in East 2.3 mph 2.3 mph 84% 0.00 in WeatherDisplay:10.37 W/m2 RA
00:09 36.9 °F 32.5 °F 30.18 in South 3.5 mph 3.5 mph 84% 0.00 in WeatherDisplay:10.37 W/m2 RA
00:14 37.0 °F 32.9 °F 30.18 in NNE 3.5 mph   85% 0.00 in WeatherDisplay:10.37 W/m2 CLR
00:19 36.8 °F 32.7 °F 30.18 in SSW 3.5 mph 3.5 mph 85% 0.00 in WeatherDisplay:10.37 W/m2 CLR
00:24 36.8 °F 32.7 °F 30.18 in NNW 3.0 mph 3.0 mph 85% 0.00 in WeatherDisplay:10.37 W/m2 CLR
00:29 36.9 °F 32.8 °F 30.18 in ENE 1.2 mph 1.2 mph 85% 0.00 in WeatherDisplay:10.37 W/m2 CLR
00:34 37.0 °F 32.9 °F 30.18 in NNE 3.5 mph 3.5 mph 85% 0.00 in WeatherDisplay:10.37 W/m2 CLR
00:39 36.9 °F 33.1 °F 30.17 in South 3.0 mph 3.0 mph 86% 0.00 in WeatherDisplay:10.37 W/m2 CLR
00:44 37.0 °F 33.2 °F 30.17 in SSW 3.5 mph 3.5 mph 86% 0.00 in WeatherDisplay:10.37 W/m2 CLR
00:49 37.0 °F 33.2 °F 30.16 in SW 3.5 mph 3.5 mph 86% 0.00 in WeatherDisplay:10.37 W/m2 CLR
00:54 37.1 °F 33.3 °F 30.16 in SSW 6.9 mph 6.9 mph 86% 0.00 in WeatherDisplay:10.37 W/m2 CLR
00:59 37.0 °F 33.2 °F 30.16 in South 3.5 mph 3.5 mph 86% 0.00 in WeatherDisplay:10.37 W/m2 CLR
01:02 37.1 °F 33.3 °F 30.16 in ESE 5.8 mph 5.8 mph 86% 0.00 in WeatherDisplay:10.37 W/m2 CLR
01:07 37.1 °F 33.6 °F 30.16 in North 3.5 mph 3.5 mph 87% 0.00 in WeatherDisplay:10.37 W/m2 CLR
01:12 37.2 °F 33.7 °F 30.16 in NNW 2.3 mph 2.3 mph 87% 0.00 in WeatherDisplay:10.37 W/m2 CLR
01:17 37.2 °F 33.7 °F 30.15 in WSW 6.9 mph 6.9 mph 87% 0.00 in WeatherDisplay:10.37 W/m2 CLR
01:22 37.1 °F 33.9 °F 30.15 in SSE 2.3 mph 2.3 mph 88% 0.01 in WeatherDisplay:10.37 W/m2 RA
01:27 36.9 °F 34.0 °F 30.15 in SW 5.0 mph 5.0 mph 89% 0.01 in WeatherDisplay:10.37 W/m2 RA
01:32 36.7 °F 34.0 °F 30.15 in South 6.9 mph 6.9 mph 90% 0.01 in WeatherDisplay:10.37 W/m2
01:37 36.6 °F 34.2 °F 30.14 in SW 3.5 mph 3.5 mph 91% 0.01 in WeatherDisplay:10.37 W/m2 CLR
01:42 36.5 °F 34.1 °F 30.14 in SW 2.3 mph 2.3 mph 91% 0.01 in WeatherDisplay:10.37 W/m2 CLR
01:47 36.4 °F 34.3 °F 30.14 in East 3.5 mph 3.5 mph 92% 0.01 in WeatherDisplay:10.37 W/m2 CLR
01:52 36.3 °F 34.2 °F 30.14 in SSW 9.2 mph 9.2 mph 92% 0.01 in WeatherDisplay:10.37 W/m2 CLR
01:57 36.3 °F 34.2 °F 30.14 in WNW 3.5 mph 3.5 mph 92% 0.01 in WeatherDisplay:10.37 W/m2 CLR
02:02 36.3 °F 34.2 °F 30.14 in SSW 5.8 mph 5.8 mph 92% 0.01 in WeatherDisplay:10.37 W/m2 CLR
02:07 36.2 °F 34.1 °F 30.13 in SE 3.5 mph 3.5 mph 92% 0.02 in WeatherDisplay:10.37 W/m2 RA
02:12 36.2 °F 34.4 °F 30.13 in South 1.2 mph 1.2 mph 93% 0.02 in WeatherDisplay:10.37 W/m2 RA
02:17 36.1 °F 34.3 °F 30.12 in SSW 3.5 mph 3.5 mph 93% 0.02 in WeatherDisplay:10.37 W/m2
02:22 36.0 °F 34.2 °F 30.12 in South 5.8 mph 5.8 mph 93% 0.01 in WeatherDisplay:10.37 W/m2 CLR
02:27 36.0 °F 34.2 °F 30.11 in NW 3.5 mph 3.5 mph 93% 0.01 in WeatherDisplay:10.37 W/m2 CLR
02:32 36.0 °F 34.2 °F 30.11 in SSW 6.9 mph 6.9 mph 93% 0.01 in WeatherDisplay:10.37 W/m2 CLR
02:37 35.9 °F 34.3 °F 30.11 in SSW 4.6 mph 4.6 mph 94% 0.01 in WeatherDisplay:10.37 W/m2 CLR
02:42 35.8 °F 34.0 °F 30.11 in SSW 3.5 mph 3.5 mph 93% 0.02 in WeatherDisplay:10.37 W/m2 RA
02:47 35.7 °F 34.1 °F 30.11 in SSW 3.5 mph 3.5 mph 94% 0.03 in WeatherDisplay:10.37 W/m2 RA
02:52 35.6 °F 34.0 °F 30.10 in SE 3.5 mph 3.5 mph 94% 0.04 in WeatherDisplay:10.37 W/m2 RA
02:57 35.5 °F 33.9 °F 30.10 in SSW 3.5 mph 3.5 mph 94% 0.05 in WeatherDisplay:10.37 W/m2 RA
03:02 35.5 °F 33.9 °F 30.09 in SSE 4.6 mph 4.6 mph 94% 0.05 in WeatherDisplay:10.37 W/m2 RA
03:07 35.5 °F 33.9 °F 30.09 in West 3.5 mph 3.5 mph 94% 0.04 in WeatherDisplay:10.37 W/m2
03:12 35.5 °F 34.2 °F 30.09 in SW 8.1 mph 8.1 mph 95% 0.04 in WeatherDisplay:10.37 W/m2 CLR
03:17 35.5 °F 34.2 °F 30.09 in SSE 1.2 mph 1.4 mph 95% 0.04 in WeatherDisplay:10.37 W/m2 CLR
03:22 35.5 °F 34.2 °F 30.09 in SSW 4.6 mph 4.6 mph 95% 0.04 in WeatherDisplay:10.37 W/m2 CLR
03:27 35.4 °F 34.1 °F 30.09 in South 3.5 mph 3.5 mph 95% 0.04 in WeatherDisplay:10.37 W/m2 CLR
03:32 35.3 °F 34.0 °F 30.08 in SSW 9.2 mph 9.2 mph 95% 0.04 in WeatherDisplay:10.37 W/m2 CLR
03:37 35.3 °F 34.0 °F 30.08 in South 3.5 mph 3.5 mph 95% 0.05 in WeatherDisplay:10.37 W/m2 RA
03:42 35.4 °F 34.1 °F 30.07 in SW 3.5 mph 3.5 mph 95% 0.04 in WeatherDisplay:10.37 W/m2 RA
03:47 35.4 °F 34.1 °F 30.07 in South 3.5 mph 3.5 mph 95% 0.03 in WeatherDisplay:10.37 W/m2
03:52 35.4 °F 34.1 °F 30.06 in South 4.6 mph 4.6 mph 95% 0.02 in WeatherDisplay:10.37 W/m2 CLR
03:57 35.5 °F 34.2 °F 30.06 in South 3.5 mph 3.5 mph 95% 0.01 in WeatherDisplay:10.37 W/m2 CLR
04:02 35.6 °F 34.6 °F 30.06 in South 5.8 mph 5.8 mph 96% 0.01 in WeatherDisplay:10.37 W/m2 CLR
04:07 35.7 °F 34.7 °F 30.05 in SSW 6.9 mph 6.9 mph 96% 0.01 in WeatherDisplay:10.37 W/m2 CLR
04:12 35.8 °F 34.8 °F 30.05 in SSW 3.5 mph 3.5 mph 96% 0.01 in WeatherDisplay:10.37 W/m2 CLR
04:17 35.8 °F 34.8 °F 30.05 in SW 3.5 mph 3.5 mph 96% 0.01 in WeatherDisplay:10.37 W/m2 CLR
04:22 35.9 °F 34.9 °F 30.05 in SW 3.5 mph 3.5 mph 96% 0.01 in WeatherDisplay:10.37 W/m2 CLR
04:27 36.0 °F 35.0 °F 30.04 in SSW 3.5 mph 3.5 mph 96% 0.01 in WeatherDisplay:10.37 W/m2 CLR
04:32 36.0 °F 35.0 °F 30.05 in ESE 4.6 mph 4.6 mph 96% 0.01 in WeatherDisplay:10.37 W/m2 CLR
04:37 36.0 °F 35.0 °F 30.04 in SSE 4.0 mph 4.0 mph 96% 0.00 in WeatherDisplay:10.37 W/m2 CLR
04:42 36.1 °F 35.1 °F 30.04 in SSW 3.0 mph 3.0 mph 96% 0.00 in WeatherDisplay:10.37 W/m2 CLR
04:47 36.1 °F 35.1 °F 30.04 in SSW 5.0 mph 5.0 mph 96% 0.00 in WeatherDisplay:10.37 W/m2 CLR
04:52 36.1 °F 35.1 °F 30.04 in South 2.3 mph 2.3 mph 96% 0.00 in WeatherDisplay:10.37 W/m2 CLR
04:57 36.2 °F 35.2 °F 30.04 in SSW 3.0 mph 3.0 mph 96% 0.00 in WeatherDisplay:10.37 W/m2 CLR
05:02 36.2 °F 35.2 °F 30.04 in SSE 3.0 mph 3.0 mph 96% 0.01 in WeatherDisplay:10.37 W/m2 RA
05:07 36.2 °F 35.2 °F 30.04 in SSW 2.3 mph 2.3 mph 96% 0.02 in WeatherDisplay:10.37 W/m2 RA
05:12 36.2 °F 35.2 °F 30.04 in South 3.5 mph 3.5 mph 96% 0.03 in WeatherDisplay:10.37 W/m2 RA
05:17 36.2 °F 35.2 °F 30.04 in SSW 2.3 mph 2.3 mph 96% 0.04 in WeatherDisplay:10.37 W/m2 RA
05:22 36.2 °F 35.2 °F 30.04 in SSW 8.1 mph 8.1 mph 96% 0.05 in WeatherDisplay:10.37 W/m2 RA
05:27 36.2 °F 35.2 °F 30.04 in South 4.6 mph 4.6 mph 96% 0.06 in WeatherDisplay:10.37 W/m2 RA
05:32 36.1 °F 35.1 °F 30.04 in South 2.3 mph 2.3 mph 96% 0.06 in WeatherDisplay:10.37 W/m2 RA
05:37 36.1 °F 35.1 °F 30.04 in NW 1.2 mph 1.2 mph 96% 0.06 in WeatherDisplay:10.37 W/m2
05:42 36.1 °F 35.1 °F 30.04 in NW 1.2 mph 1.2 mph 96% 0.07 in WeatherDisplay:10.37 W/m2 RA
05:47 36.0 °F 35.0 °F 30.04 in NW 1.2 mph   96% 0.08 in WeatherDisplay:10.37 W/m2 RA
05:52 36.0 °F 35.0 °F 30.04 in NW 2.3 mph 2.3 mph 96% 0.09 in WeatherDisplay:10.37 W/m2 RA
05:57 35.9 °F 34.9 °F 30.04 in SSW 2.3 mph 2.3 mph 96% 0.09 in WeatherDisplay:10.37 W/m2 RA
06:02 35.9 °F 34.9 °F 30.04 in SSW 1.2 mph   96% 0.08 in WeatherDisplay:10.37 W/m2
06:07 35.8 °F 34.8 °F 30.04 in Calm     96% 0.07 in WeatherDisplay:10.37 W/m2 CLR
06:12 35.8 °F 34.8 °F 30.04 in SSW 1.2 mph 1.2 mph 96% 0.06 in WeatherDisplay:10.37 W/m2 CLR
06:17 35.8 °F 34.8 °F 30.04 in SSW 1.2 mph 1.2 mph 96% 0.05 in WeatherDisplay:10.37 W/m2 CLR
06:22 35.8 °F 34.8 °F 30.04 in SSW 1.2 mph 1.2 mph 96% 0.04 in WeatherDisplay:10.37 W/m2 CLR
06:27 35.8 °F 34.8 °F 30.05 in SSW 1.0 mph 1.0 mph 96% 0.04 in WeatherDisplay:10.37 W/m2 RA
06:32 35.7 °F 34.9 °F 30.05 in SSW 1.2 mph 1.2 mph 97% 0.05 in WeatherDisplay:10.37 W/m2 RA
06:37 35.7 °F 34.9 °F 30.05 in SSW 1.2 mph 1.2 mph 97% 0.06 in WeatherDisplay:10.37 W/m2 RA
06:42 35.7 °F 34.9 °F 30.05 in NW 2.3 mph 2.3 mph 97% 0.05 in WeatherDisplay:10.37 W/m2 RA
06:47 35.7 °F 34.9 °F 30.05 in WNW 1.2 mph   97% 0.04 in WeatherDisplay:10.37 W/m2
06:52 35.8 °F 35.0 °F 30.05 in South 1.2 mph 1.2 mph 97% 0.03 in WeatherDisplay:10.37 W/m2 CLR
06:57 35.7 °F 34.9 °F 30.05 in South 1.2 mph 1.2 mph 97% 0.03 in WeatherDisplay:10.37 W/m2 CLR
07:02 35.6 °F 34.8 °F 30.05 in South 2.3 mph 2.3 mph 97% 0.04 in WeatherDisplay:10.37 W/m2 RA
07:07 35.5 °F 34.7 °F 30.06 in West 2.3 mph 2.3 mph 97% 0.04 in WeatherDisplay:10.37 W/m2 RA
07:12 35.4 °F 34.4 °F 30.06 in West 1.2 mph 1.2 mph 96% 0.04 in WeatherDisplay:10.37 W/m2
07:17 35.3 °F 34.3 °F 30.06 in West 1.0 mph 1.0 mph 96% 0.04 in WeatherDisplay:10.37 W/m2 CLR
07:22 35.1 °F 34.1 °F 30.06 in Calm     96% 0.04 in WeatherDisplay:10.37 W/m2 CLR
07:27 35.0 °F 34.0 °F 30.07 in Calm     96% 0.03 in WeatherDisplay:10.37 W/m2 CLR
07:32 34.9 °F 33.9 °F 30.07 in Calm     96% 0.02 in WeatherDisplay:10.37 W/m2 CLR
07:37 34.8 °F 33.8 °F 30.07 in Calm     96% 0.01 in WeatherDisplay:10.37 W/m2 CLR
07:42 34.8 °F 34.0 °F 30.07 in Calm     97% 0.01 in WeatherDisplay:10.37 W/m2 CLR
07:47 34.8 °F 34.0 °F 30.08 in East 2.3 mph 2.3 mph 97% 0.01 in WeatherDisplay:10.37 W/m2 CLR
07:52 35.0 °F 34.2 °F 30.08 in NNW 1.2 mph 1.2 mph 97% 0.01 in WeatherDisplay:10.37 W/m2 CLR
07:57 35.0 °F 34.2 °F 30.08 in NNW 1.2 mph 1.2 mph 97% 0.01 in WeatherDisplay:10.37 W/m2 CLR
08:02 35.0 °F 34.2 °F 30.08 in NNW 1.2 mph 1.2 mph 97% 0.00 in WeatherDisplay:10.37 W/m2 CLR
08:07 35.0 °F 34.2 °F 30.09 in NNW 1.2 mph 1.2 mph 97% 0.00 in WeatherDisplay:10.37 W/m2 CLR
08:12 35.0 °F 34.2 °F 30.09 in NNW 1.2 mph 1.2 mph 97% 0.00 in WeatherDisplay:10.37 W/m2 CLR
08:17 35.0 °F 34.2 °F 30.09 in NNW 1.2 mph 1.2 mph 97% 0.00 in WeatherDisplay:10.37 W/m2 CLR
08:22 35.0 °F 34.2 °F 30.09 in NNW 2.3 mph 2.3 mph 97% 0.00 in WeatherDisplay:10.37 W/m2 CLR
08:27 35.3 °F 34.5 °F 30.09 in North 2.0 mph 2.0 mph 97% 0.00 in WeatherDisplay:10.37 W/m2 CLR
08:32 35.6 °F 34.8 °F 30.10 in North 3.5 mph 3.5 mph 97% 0.00 in WeatherDisplay:10.37 W/m2 CLR
08:37 35.8 °F 35.0 °F 30.10 in North 2.3 mph 2.3 mph 97% 0.00 in WeatherDisplay:10.37 W/m2 CLR
08:42 36.0 °F 35.2 °F 30.10 in North 1.2 mph   97% 0.00 in WeatherDisplay:10.37 W/m2 CLR
08:47 36.1 °F 35.3 °F 30.10 in North 1.2 mph 1.2 mph 97% 0.00 in WeatherDisplay:10.37 W/m2 CLR
08:52 36.2 °F 35.4 °F 30.10 in North 1.2 mph 1.2 mph 97% 0.00 in WeatherDisplay:10.37 W/m2 CLR
08:57 36.2 °F 35.4 °F 30.11 in Calm     97% 0.00 in WeatherDisplay:10.37 W/m2 CLR
09:02 36.3 °F 35.5 °F 30.11 in Calm     97% 0.00 in WeatherDisplay:10.37 W/m2 CLR
09:07 36.4 °F 35.6 °F 30.11 in North 1.2 mph 1.2 mph 97% 0.00 in WeatherDisplay:10.37 W/m2 CLR
09:12 36.4 °F 35.6 °F 30.12 in North 1.0 mph   97% 0.00 in WeatherDisplay:10.37 W/m2 CLR
09:17 36.4 °F 35.6 °F 30.12 in Calm     97% 0.00 in WeatherDisplay:10.37 W/m2 CLR
09:22 36.6 °F 35.8 °F 30.12 in North 1.2 mph   97% 0.00 in WeatherDisplay:10.37 W/m2 CLR
09:27 36.8 °F 36.0 °F 30.12 in North 1.2 mph 1.2 mph 97% 0.00 in WeatherDisplay:10.37 W/m2 CLR
09:32 37.1 °F 36.3 °F 30.12 in North 1.2 mph 1.2 mph 97% 0.00 in WeatherDisplay:10.37 W/m2 CLR
09:37 37.3 °F 36.5 °F 30.12 in North 2.0 mph 2.0 mph 97% 0.00 in WeatherDisplay:10.37 W/m2 CLR
09:42 37.5 °F 36.7 °F 30.12 in NE 1.2 mph   97% 0.00 in WeatherDisplay:10.37 W/m2 CLR
09:47 37.6 °F 36.8 °F 30.13 in NE 3.5 mph 3.5 mph 97% 0.00 in WeatherDisplay:10.37 W/m2 CLR
09:52 37.6 °F 36.6 °F 30.13 in NE 2.3 mph 2.3 mph 96% 0.00 in WeatherDisplay:10.37 W/m2 CLR
09:57 37.7 °F 36.7 °F 30.13 in Calm   0.2 mph 96% 0.00 in WeatherDisplay:10.37 W/m2 CLR
10:02 37.8 °F 36.8 °F 30.13 in NE 1.2 mph 1.2 mph 96% 0.00 in WeatherDisplay:10.37 W/m2 CLR
10:07 37.8 °F 36.8 °F 30.14 in NE 1.2 mph 1.2 mph 96% 0.00 in WeatherDisplay:10.37 W/m2 CLR
10:12 37.9 °F 36.9 °F 30.14 in Calm     96% 0.00 in WeatherDisplay:10.37 W/m2 CLR
10:17 37.9 °F 36.9 °F 30.14 in NE 1.2 mph 1.2 mph 96% 0.00 in WeatherDisplay:10.37 W/m2 CLR
10:22 38.1 °F 37.1 °F 30.14 in NE 2.0 mph 2.0 mph 96% 0.00 in WeatherDisplay:10.37 W/m2 CLR
10:27 38.1 °F 37.1 °F 30.15 in NE 2.3 mph 2.3 mph 96% 0.00 in WeatherDisplay:10.37 W/m2 CLR
10:32 38.2 °F 37.2 °F 30.15 in NE 1.2 mph 1.2 mph 96% 0.00 in WeatherDisplay:10.37 W/m2 CLR
10:37 38.3 °F 37.3 °F 30.15 in NE 1.2 mph   96% 0.00 in WeatherDisplay:10.37 W/m2 CLR
10:42 38.4 °F 37.4 °F 30.15 in NE 1.2 mph   96% 0.00 in WeatherDisplay:10.37 W/m2 CLR
10:47 38.9 °F 37.9 °F 30.15 in NE 1.2 mph 1.2 mph 96% 0.00 in WeatherDisplay:10.37 W/m2 CLR
10:52 39.3 °F 38.3 °F 30.15 in SE 2.0 mph 2.0 mph 96% 0.00 in WeatherDisplay:10.37 W/m2 CLR
10:57 39.6 °F 38.6 °F 30.16 in SSW 3.5 mph 3.5 mph 96% 0.00 in WeatherDisplay:10.37 W/m2 CLR
11:02 39.9 °F 38.3 °F 30.16 in West 2.3 mph 2.3 mph 94% 0.00 in WeatherDisplay:10.37 W/m2 CLR
11:07 40.2 °F 38.6 °F 30.16 in SSW 2.3 mph 2.3 mph 94% 0.00 in WeatherDisplay:10.37 W/m2 CLR
11:12 40.2 °F 37.8 °F 30.16 in SSW 3.5 mph 3.5 mph 91% 0.00 in WeatherDisplay:10.37 W/m2 CLR
11:17 40.3 °F 37.6 °F 30.16 in NW 3.5 mph 3.5 mph 90% 0.00 in WeatherDisplay:10.37 W/m2 CLR
11:22 40.4 °F 38.0 °F 30.16 in ESE 2.0 mph 2.0 mph 91% 0.00 in WeatherDisplay:10.37 W/m2 CLR
11:27 40.7 °F 38.8 °F 30.16 in NNE 3.5 mph 3.5 mph 93% 0.00 in WeatherDisplay:10.37 W/m2 CLR
11:32 40.7 °F 38.8 °F 30.16 in NE 3.5 mph 3.5 mph 93% 0.00 in WeatherDisplay:10.37 W/m2 CLR
11:37 40.5 °F 38.4 °F 30.16 in NE 2.3 mph 2.3 mph 92% 0.00 in WeatherDisplay:10.37 W/m2 CLR
11:42 40.4 °F 38.5 °F 30.16 in NE 2.3 mph 2.3 mph 93% 0.00 in WeatherDisplay:10.37 W/m2 CLR
11:47 40.3 °F 38.7 °F 30.16 in NNE 3.5 mph 3.5 mph 94% 0.00 in WeatherDisplay:10.37 W/m2 CLR
11:52 40.1 °F 38.2 °F 30.16 in NE 4.6 mph 4.6 mph 93% 0.00 in WeatherDisplay:10.37 W/m2 CLR
11:57 39.5 °F 37.1 °F 30.17 in NE 7.0 mph 7.0 mph 91% 0.00 in WeatherDisplay:10.37 W/m2 CLR
12:02 38.7 °F 36.3 °F 30.17 in ENE 11.5 mph 11.5 mph 91% 0.01 in WeatherDisplay:10.37 W/m2 RA
12:07 38.0 °F 35.9 °F 30.17 in WSW 9.2 mph 9.2 mph 92% 0.04 in WeatherDisplay:10.37 W/m2 RA
12:12 37.6 °F 35.8 °F 30.18 in West 2.3 mph 2.3 mph 93% 0.05 in WeatherDisplay:10.37 W/m2 RA
12:17 37.7 °F 36.4 °F 30.17 in WSW 2.3 mph 2.3 mph 95% 0.06 in WeatherDisplay:10.37 W/m2 RA
12:23 38.0 °F 36.7 °F 30.18 in SW 2.3 mph 2.3 mph 95% 0.07 in WeatherDisplay:10.37 W/m2 RA
12:27 38.2 °F 37.2 °F 30.17 in SW 2.3 mph 2.3 mph 96% 0.07 in WeatherDisplay:10.37 W/m2 RA
12:32 38.5 °F 37.5 °F 30.18 in SW 1.2 mph 1.2 mph 96% 0.07 in WeatherDisplay:10.37 W/m2
12:37 38.8 °F 37.8 °F 30.17 in SW 1.2 mph 1.2 mph 96% 0.07 in WeatherDisplay:10.37 W/m2 CLR
12:42 39.3 °F 38.3 °F 30.17 in NNE 3.5 mph 3.5 mph 96% 0.07 in WeatherDisplay:10.37 W/m2 CLR
12:47 40.2 °F 39.4 °F 30.17 in West 3.5 mph 3.5 mph 97% 0.07 in WeatherDisplay:10.37 W/m2 CLR
12:52 40.7 °F 39.4 °F 30.17 in NW 2.3 mph 2.3 mph 95% 0.07 in WeatherDisplay:10.37 W/m2 CLR
12:57 40.9 °F 39.0 °F 30.17 in WSW 3.5 mph 3.5 mph 93% 0.07 in WeatherDisplay:10.37 W/m2 CLR
13:03 41.3 °F 39.7 °F 30.17 in NW 3.5 mph 3.5 mph 94% 0.05 in WeatherDisplay:10.37 W/m2 CLR
13:06 41.7 °F 39.8 °F 30.17 in NNE 3.5 mph 3.5 mph 93% 0.04 in WeatherDisplay:10.37 W/m2 CLR
13:12 42.1 °F 39.9 °F 30.17 in NE 3.5 mph 3.5 mph 92% 0.02 in WeatherDisplay:10.37 W/m2 CLR
13:17 42.7 °F 40.8 °F 30.17 in NNE 6.9 mph 6.9 mph 93% 0.01 in WeatherDisplay:10.37 W/m2 CLR
13:22 43.2 °F 40.5 °F 30.18 in NW 3.5 mph 3.5 mph 90% 0.00 in WeatherDisplay:10.37 W/m2 CLR
13:27 43.1 °F 40.1 °F 30.18 in Calm     89% 0.00 in WeatherDisplay:10.37 W/m2 CLR
13:29 43.1 °F 38.9 °F 30.18 in NNW 1.2 mph 1.2 mph 85% 0.00 in WeatherDisplay:10.37 W/m2 CLR
13:34 43.4 °F 39.2 °F 30.18 in West 2.3 mph 2.3 mph 85% 0.00 in WeatherDisplay:10.37 W/m2 CLR
13:39 43.7 °F 40.1 °F 30.18 in South 3.0 mph 3.0 mph 87% 0.00 in WeatherDisplay:10.37 W/m2 CLR
13:43 43.8 °F 40.2 °F 30.18 in South 1.2 mph 1.2 mph 87% 0.00 in WeatherDisplay:10.37 W/m2 CLR
13:48 44.1 °F 41.1 °F 30.18 in South 2.3 mph 2.3 mph 89% 0.00 in WeatherDisplay:10.37 W/m2 CLR
13:53 44.2 °F 40.9 °F 30.18 in SSW 2.0 mph 2.0 mph 88% 0.00 in WeatherDisplay:10.37 W/m2 CLR
13:58 44.3 °F 40.4 °F 30.18 in NNE 4.6 mph 4.6 mph 86% 0.00 in WeatherDisplay:10.37 W/m2 CLR
14:02 44.5 °F 40.9 °F 30.18 in West 3.5 mph 3.5 mph 87% 0.00 in WeatherDisplay:10.37 W/m2 CLR
14:07 44.7 °F 39.5 °F 30.18 in West 3.5 mph 3.5 mph 82% 0.00 in WeatherDisplay:10.37 W/m2 CLR
14:12 45.2 °F 39.7 °F 30.18 in West 3.5 mph 3.5 mph 81% 0.00 in WeatherDisplay:10.37 W/m2 CLR
14:17 45.9 °F 38.1 °F 30.18 in NW 4.0 mph 4.0 mph 74% 0.00 in WeatherDisplay:10.37 W/m2 CLR
14:22 46.1 °F 36.9 °F 30.18 in South 8.1 mph 8.1 mph 70% 0.00 in WeatherDisplay:10.37 W/m2 CLR
14:24 46.2 °F 37.7 °F 30.18 in SW 6.9 mph 6.9 mph 72% 0.00 in WeatherDisplay:10.37 W/m2 CLR
14:29 46.1 °F 37.2 °F 30.18 in WSW 9.2 mph 9.2 mph 71% 0.00 in WeatherDisplay:10.37 W/m2 CLR
14:34 45.9 °F 35.9 °F 30.18 in WSW 6.9 mph 6.9 mph 68% 0.00 in WeatherDisplay:10.37 W/m2 CLR
14:39 45.9 °F 35.9 °F 30.18 in West 11.5 mph 11.5 mph 68% 0.00 in WeatherDisplay:10.37 W/m2 CLR
14:42 46.0 °F 37.5 °F 30.18 in NW 5.0 mph 5.0 mph 72% 0.00 in WeatherDisplay:10.37 W/m2 CLR
14:47 46.3 °F 37.0 °F 30.18 in SW 3.5 mph 3.5 mph 70% 0.00 in WeatherDisplay:10.37 W/m2 CLR
14:52 46.7 °F 37.8 °F 30.18 in West 3.5 mph 3.5 mph 71% 0.00 in WeatherDisplay:10.37 W/m2 CLR
14:57 47.1 °F 36.7 °F 30.18 in NW 6.9 mph 6.9 mph 67% 0.00 in WeatherDisplay:10.37 W/m2 CLR
14:58 47.1 °F 36.7 °F 30.18 in South 6.9 mph 6.9 mph 67% 0.00 in WeatherDisplay:10.37 W/m2 CLR
15:03 47.3 °F 37.6 °F 30.18 in West 6.9 mph 6.9 mph 69% 0.00 in WeatherDisplay:10.37 W/m2 CLR
15:08 47.5 °F 36.7 °F 30.19 in WSW 11.5 mph 11.5 mph 66% 0.00 in WeatherDisplay:10.37 W/m2 CLR
15:13 47.0 °F 36.2 °F 30.19 in SSW 11.5 mph 11.5 mph 66% 0.00 in WeatherDisplay:10.37 W/m2 CLR
15:18 46.3 °F 37.0 °F 30.20 in SW 3.5 mph 3.5 mph 70% 0.00 in WeatherDisplay:10.37 W/m2 CLR
15:23 46.5 °F 38.0 °F 30.19 in NNW 4.0 mph 4.0 mph 72% 0.00 in WeatherDisplay:10.37 W/m2 CLR
15:28 47.0 °F 36.6 °F 30.20 in WSW 4.6 mph 4.6 mph 67% 0.00 in WeatherDisplay:10.37 W/m2 CLR
15:33 47.3 °F 36.9 °F 30.20 in SW 4.6 mph 4.6 mph 67% 0.00 in WeatherDisplay:10.37 W/m2 CLR
15:38 47.3 °F 37.3 °F 30.20 in NW 9.0 mph 9.0 mph 68% 0.00 in WeatherDisplay:10.37 W/m2 CLR
15:43 47.2 °F 36.0 °F 30.20 in West 6.0 mph 6.0 mph 65% 0.00 in WeatherDisplay:10.37 W/m2 CLR
15:48 47.0 °F 36.2 °F 30.20 in South 7.0 mph 7.0 mph 66% 0.00 in WeatherDisplay:10.37 W/m2 CLR
15:51 46.7 °F 36.3 °F 30.20 in SW 4.6 mph 4.6 mph 67% 0.00 in WeatherDisplay:10.37 W/m2 CLR
15:56 46.4 °F 37.1 °F 30.20 in SSW 3.5 mph 3.5 mph 70% 0.00 in WeatherDisplay:10.37 W/m2 CLR
16:01 46.4 °F 36.8 °F 30.21 in West 3.5 mph 3.5 mph 69% 0.00 in WeatherDisplay:10.37 W/m2 CLR
16:06 46.0 °F 36.8 °F 30.21 in SSW 8.0 mph 8.0 mph 70% 0.00 in WeatherDisplay:10.37 W/m2 CLR
16:11 45.1 °F 35.9 °F 30.21 in South 11.5 mph 11.5 mph 70% 0.00 in WeatherDisplay:10.37 W/m2 CLR
16:16 44.5 °F 35.3 °F 30.21 in WSW 8.1 mph 8.1 mph 70% 0.00 in WeatherDisplay:10.37 W/m2 CLR
16:21 44.4 °F 35.6 °F 30.22 in North 3.5 mph 3.5 mph 71% 0.00 in WeatherDisplay:10.37 W/m2 CLR
16:26 44.2 °F 35.0 °F 30.22 in South 3.0 mph 3.0 mph 70% 0.00 in WeatherDisplay:10.37 W/m2 CLR
16:31 44.3 °F 34.8 °F 30.22 in SW 8.0 mph 8.0 mph 69% 0.00 in WeatherDisplay:10.37 W/m2 CLR
16:36 44.3 °F 35.1 °F 30.22 in SW 5.8 mph 5.8 mph 70% 0.00 in WeatherDisplay:10.37 W/m2 CLR
16:41 44.1 °F 34.9 °F 30.22 in SE 2.3 mph 2.3 mph 70% 0.00 in WeatherDisplay:10.37 W/m2 CLR
16:46 43.8 °F 35.7 °F 30.23 in SSW 8.1 mph 8.1 mph 73% 0.00 in WeatherDisplay:10.37 W/m2 CLR
16:51 43.4 °F 35.7 °F 30.23 in SSE 5.8 mph 5.8 mph 74% 0.00 in WeatherDisplay:10.37 W/m2 CLR
16:56 43.2 °F 34.8 °F 30.23 in WNW 5.8 mph 5.8 mph 72% 0.00 in WeatherDisplay:10.37 W/m2 CLR
17:01 43.1 °F 35.0 °F 30.23 in West 2.3 mph 2.3 mph 73% 0.00 in WeatherDisplay:10.37 W/m2 CLR
17:06 43.1 °F 35.0 °F 30.23 in ESE 3.5 mph 3.5 mph 73% 0.00 in WeatherDisplay:10.37 W/m2 CLR
17:11 43.0 °F 35.6 °F 30.23 in ESE 2.3 mph 2.3 mph 75% 0.00 in WeatherDisplay:10.37 W/m2 CLR
17:16 42.8 °F 35.4 °F 30.23 in SSW 1.2 mph   75% 0.00 in WeatherDisplay:10.37 W/m2 CLR
17:21 42.5 °F 35.1 °F 30.23 in SSW 3.5 mph 3.5 mph 75% 0.00 in WeatherDisplay:10.37 W/m2 CLR
17:26 42.2 °F 35.5 °F 30.24 in South 1.2 mph 1.2 mph 77% 0.00 in WeatherDisplay:10.37 W/m2 CLR
17:31 41.8 °F 35.1 °F 30.24 in SSE 2.3 mph 2.3 mph 77% 0.00 in WeatherDisplay:10.37 W/m2 CLR
17:36 41.4 °F 34.7 °F 30.24 in South 3.5 mph 3.5 mph 77% 0.00 in WeatherDisplay:10.37 W/m2 CLR
17:41 41.0 °F 35.0 °F 30.24 in South 1.2 mph 1.2 mph 79% 0.00 in WeatherDisplay:10.37 W/m2 CLR
17:46 40.5 °F 35.4 °F 30.24 in South 1.2 mph 1.2 mph 82% 0.00 in WeatherDisplay:10.37 W/m2 CLR
17:51 39.8 °F 35.1 °F 30.24 in South 1.2 mph 1.2 mph 83% 0.00 in WeatherDisplay:10.37 W/m2 CLR
17:56 39.2 °F 34.8 °F 30.23 in Calm     84% 0.00 in WeatherDisplay:10.37 W/m2 CLR
18:01 38.8 °F 35.0 °F 30.23 in South 1.2 mph 1.2 mph 86% 0.00 in WeatherDisplay:10.37 W/m2 CLR
18:06 38.4 °F 34.6 °F 30.24 in Calm     86% 0.00 in WeatherDisplay:10.37 W/m2 CLR
18:11 38.0 °F 34.2 °F 30.24 in South 1.2 mph 1.2 mph 86% 0.00 in WeatherDisplay:10.37 W/m2 CLR
18:16 37.8 °F 34.3 °F 30.24 in South 1.2 mph 1.2 mph 87% 0.00 in WeatherDisplay:10.37 W/m2 CLR
18:21 37.7 °F 34.2 °F 30.24 in South 1.2 mph 1.2 mph 87% 0.00 in WeatherDisplay:10.37 W/m2 CLR
18:26 37.5 °F 34.3 °F 30.25 in South 2.3 mph 2.3 mph 88% 0.00 in WeatherDisplay:10.37 W/m2 CLR
18:31 37.3 °F 34.1 °F 30.25 in South 1.2 mph 1.2 mph 88% 0.00 in WeatherDisplay:10.37 W/m2 CLR
18:36 37.1 °F 34.2 °F 30.25 in Calm     89% 0.00 in WeatherDisplay:10.37 W/m2 CLR
18:41 37.0 °F 34.3 °F 30.25 in Calm     90% 0.00 in WeatherDisplay:10.37 W/m2 CLR
18:46 36.9 °F 34.5 °F 30.25 in Calm     91% 0.00 in WeatherDisplay:10.37 W/m2 CLR
18:51 36.8 °F 34.4 °F 30.25 in ESE 3.0 mph 3.0 mph 91% 0.00 in WeatherDisplay:10.37 W/m2 CLR
18:56 36.7 °F 34.3 °F 30.25 in ESE 3.5 mph 3.5 mph 91% 0.00 in WeatherDisplay:10.37 W/m2 CLR
19:01 36.7 °F 34.3 °F 30.25 in ESE 1.2 mph 1.2 mph 91% 0.00 in WeatherDisplay:10.37 W/m2 CLR
19:06 36.6 °F 34.2 °F 30.25 in East 2.3 mph 2.3 mph 91% 0.00 in WeatherDisplay:10.37 W/m2 CLR
19:11 36.6 °F 34.2 °F 30.25 in East 2.3 mph 2.3 mph 91% 0.00 in WeatherDisplay:10.37 W/m2 CLR
19:16 36.5 °F 34.4 °F 30.25 in East 2.3 mph 2.3 mph 92% 0.00 in WeatherDisplay:10.37 W/m2 CLR
19:21 36.5 °F 34.4 °F 30.25 in East 3.5 mph 3.5 mph 92% 0.00 in WeatherDisplay:10.37 W/m2 CLR
19:26 36.4 °F 34.3 °F 30.25 in East 1.2 mph 1.2 mph 92% 0.00 in WeatherDisplay:10.37 W/m2 CLR
VanCam Weather
Compliments of Weather Underground - 3.5 mb